sensor_id;sensor_type;location;lat;lon;timestamp;pressure;altitude;pressure_sealevel;temperature;humidity
53932;BME280;39844;52.496;13.482;2023-07-13T00:01:48;100977.63;;;20.67;54.50
53932;BME280;39844;52.496;13.482;2023-07-13T00:04:14;100985.69;;;20.66;53.91
53932;BME280;39844;52.496;13.482;2023-07-13T00:06:39;100981.22;;;20.66;53.76
53932;BME280;39844;52.496;13.482;2023-07-13T00:09:04;100983.94;;;20.65;53.69
53932;BME280;39844;52.496;13.482;2023-07-13T00:11:30;100988.44;;;20.64;54.17
53932;BME280;39844;52.496;13.482;2023-07-13T00:13:55;100991.22;;;20.61;54.36
53932;BME280;39844;52.496;13.482;2023-07-13T00:16:20;100987.00;;;20.56;54.46
53932;BME280;39844;52.496;13.482;2023-07-13T00:18:46;100991.53;;;20.54;55.11
53932;BME280;39844;52.496;13.482;2023-07-13T00:21:12;100999.66;;;20.51;55.83
53932;BME280;39844;52.496;13.482;2023-07-13T00:23:39;100994.50;;;20.46;55.63
53932;BME280;39844;52.496;13.482;2023-07-13T00:26:07;100999.09;;;20.43;55.77
53932;BME280;39844;52.496;13.482;2023-07-13T00:28:33;100993.88;;;20.40;56.07
53932;BME280;39844;52.496;13.482;2023-07-13T00:30:59;101005.59;;;20.36;56.07
53932;BME280;39844;52.496;13.482;2023-07-13T00:33:24;101010.13;;;20.34;56.38
53932;BME280;39844;52.496;13.482;2023-07-13T00:35:50;100995.13;;;20.31;56.89
53932;BME280;39844;52.496;13.482;2023-07-13T00:38:15;101003.28;;;20.27;56.84
53932;BME280;39844;52.496;13.482;2023-07-13T00:40:42;100999.91;;;20.22;56.60
53932;BME280;39844;52.496;13.482;2023-07-13T00:43:20;101007.09;;;20.19;57.05
53932;BME280;39844;52.496;13.482;2023-07-13T00:48:15;101012.69;;;20.13;57.11
53932;BME280;39844;52.496;13.482;2023-07-13T00:50:43;101004.72;;;20.12;57.56
53932;BME280;39844;52.496;13.482;2023-07-13T00:53:10;101011.03;;;20.09;58.44
53932;BME280;39844;52.496;13.482;2023-07-13T00:55:35;100997.03;;;20.04;58.40
53932;BME280;39844;52.496;13.482;2023-07-13T00:58:01;101006.19;;;19.97;58.50
53932;BME280;39844;52.496;13.482;2023-07-13T01:00:28;101006.41;;;19.91;59.00
53932;BME280;39844;52.496;13.482;2023-07-13T01:02:56;101011.22;;;19.82;59.26
53932;BME280;39844;52.496;13.482;2023-07-13T01:05:22;101010.69;;;19.72;59.43
53932;BME280;39844;52.496;13.482;2023-07-13T01:07:51;101003.88;;;19.65;59.70
53932;BME280;39844;52.496;13.482;2023-07-13T01:10:18;101012.00;;;19.61;60.74
53932;BME280;39844;52.496;13.482;2023-07-13T01:12:46;101014.94;;;19.53;60.64
53932;BME280;39844;52.496;13.482;2023-07-13T01:15:43;101017.84;;;19.47;61.20
53932;BME280;39844;52.496;13.482;2023-07-13T01:18:13;101016.19;;;19.43;61.68
53932;BME280;39844;52.496;13.482;2023-07-13T01:20:40;101014.63;;;19.37;62.38
53932;BME280;39844;52.496;13.482;2023-07-13T01:23:08;101017.41;;;19.33;62.39
53932;BME280;39844;52.496;13.482;2023-07-13T01:25:36;101022.19;;;19.23;61.72
53932;BME280;39844;52.496;13.482;2023-07-13T01:28:06;101021.41;;;19.20;62.09
53932;BME280;39844;52.496;13.482;2023-07-13T01:30:31;101020.72;;;19.15;62.07
53932;BME280;39844;52.496;13.482;2023-07-13T01:32:56;101017.31;;;19.11;62.19
53932;BME280;39844;52.496;13.482;2023-07-13T01:35:22;101016.53;;;19.08;62.71
53932;BME280;39844;52.496;13.482;2023-07-13T01:37:47;101013.06;;;19.06;63.46
53932;BME280;39844;52.496;13.482;2023-07-13T01:40:12;101014.03;;;19.03;64.69
53932;BME280;39844;52.496;13.482;2023-07-13T01:42:38;101010.59;;;19.00;65.05
53932;BME280;39844;52.496;13.482;2023-07-13T01:45:04;101015.19;;;18.94;65.53
53932;BME280;39844;52.496;13.482;2023-07-13T01:47:30;101008.25;;;18.90;65.99
53932;BME280;39844;52.496;13.482;2023-07-13T01:49:55;101017.13;;;18.89;66.60
53932;BME280;39844;52.496;13.482;2023-07-13T01:52:20;101013.66;;;18.87;67.76
53932;BME280;39844;52.496;13.482;2023-07-13T01:54:46;101003.13;;;18.84;68.45
53932;BME280;39844;52.496;13.482;2023-07-13T01:57:11;101002.38;;;18.81;69.05
53932;BME280;39844;52.496;13.482;2023-07-13T01:59:36;101002.56;;;18.75;69.40
53932;BME280;39844;52.496;13.482;2023-07-13T02:02:02;101008.03;;;18.70;69.27
53932;BME280;39844;52.496;13.482;2023-07-13T02:04:27;101006.38;;;18.66;69.59
53932;BME280;39844;52.496;13.482;2023-07-13T02:06:52;101012.72;;;18.62;69.67
53932;BME280;39844;52.496;13.482;2023-07-13T02:09:17;101012.47;;;18.70;71.51
53932;BME280;39844;52.496;13.482;2023-07-13T02:11:45;101007.97;;;18.72;71.73
53932;BME280;39844;52.496;13.482;2023-07-13T02:14:10;101008.03;;;18.70;71.57
53932;BME280;39844;52.496;13.482;2023-07-13T02:16:35;101009.03;;;18.66;72.35
53932;BME280;39844;52.496;13.482;2023-07-13T02:19:01;101013.63;;;18.61;72.75
53932;BME280;39844;52.496;13.482;2023-07-13T02:21:26;101013.75;;;18.58;73.62
53932;BME280;39844;52.496;13.482;2023-07-13T02:23:52;101015.56;;;18.56;74.00
53932;BME280;39844;52.496;13.482;2023-07-13T02:26:17;100997.91;;;18.55;75.04
53932;BME280;39844;52.496;13.482;2023-07-13T02:28:42;100988.19;;;18.54;75.74
53932;BME280;39844;52.496;13.482;2023-07-13T02:31:11;100990.13;;;18.49;75.39
53932;BME280;39844;52.496;13.482;2023-07-13T02:33:36;100990.28;;;18.43;75.20
53932;BME280;39844;52.496;13.482;2023-07-13T02:36:02;100992.97;;;18.42;75.51
53932;BME280;39844;52.496;13.482;2023-07-13T02:38:27;100983.41;;;18.36;75.55
53932;BME280;39844;52.496;13.482;2023-07-13T02:40:53;100994.13;;;18.33;75.66
53932;BME280;39844;52.496;13.482;2023-07-13T02:43:18;101006.66;;;18.29;75.66
53932;BME280;39844;52.496;13.482;2023-07-13T02:45:44;101013.94;;;18.23;74.80
53932;BME280;39844;52.496;13.482;2023-07-13T02:48:10;101019.38;;;18.20;74.27
53932;BME280;39844;52.496;13.482;2023-07-13T02:50:35;101014.16;;;18.17;74.44
53932;BME280;39844;52.496;13.482;2023-07-13T02:53:01;101019.41;;;18.18;74.31
53932;BME280;39844;52.496;13.482;2023-07-13T02:55:26;101022.06;;;18.18;74.56
53932;BME280;39844;52.496;13.482;2023-07-13T02:57:51;101015.88;;;18.18;75.31
53932;BME280;39844;52.496;13.482;2023-07-13T03:00:17;101014.16;;;18.15;74.99
53932;BME280;39844;52.496;13.482;2023-07-13T03:02:42;101020.44;;;18.13;74.91
53932;BME280;39844;52.496;13.482;2023-07-13T03:05:08;101028.47;;;18.11;75.21
53932;BME280;39844;52.496;13.482;2023-07-13T03:07:34;101029.34;;;18.12;75.77
53932;BME280;39844;52.496;13.482;2023-07-13T03:09:59;101035.56;;;18.11;75.42
53932;BME280;39844;52.496;13.482;2023-07-13T03:12:25;101034.69;;;18.10;75.83
53932;BME280;39844;52.496;13.482;2023-07-13T03:14:53;101043.53;;;18.11;76.01
53932;BME280;39844;52.496;13.482;2023-07-13T03:17:18;101037.41;;;18.09;76.24
53932;BME280;39844;52.496;13.482;2023-07-13T03:19:43;101044.56;;;18.07;76.20
53932;BME280;39844;52.496;13.482;2023-07-13T03:22:09;101046.41;;;18.05;76.05
53932;BME280;39844;52.496;13.482;2023-07-13T03:24:34;101035.88;;;18.00;75.56
53932;BME280;39844;52.496;13.482;2023-07-13T03:27:04;101039.47;;;17.99;75.37
53932;BME280;39844;52.496;13.482;2023-07-13T03:29:30;101049.97;;;18.04;75.39
53932;BME280;39844;52.496;13.482;2023-07-13T03:31:55;101048.94;;;18.08;75.32
53932;BME280;39844;52.496;13.482;2023-07-13T03:34:20;101051.53;;;18.11;75.33
53932;BME280;39844;52.496;13.482;2023-07-13T03:36:45;101051.44;;;18.14;74.07
53932;BME280;39844;52.496;13.482;2023-07-13T03:39:11;101050.38;;;18.19;73.06
53932;BME280;39844;52.496;13.482;2023-07-13T03:41:36;101046.69;;;18.25;71.37
53932;BME280;39844;52.496;13.482;2023-07-13T03:44:02;101049.09;;;18.33;70.57
53932;BME280;39844;52.496;13.482;2023-07-13T03:46:27;101058.56;;;18.41;70.58
53932;BME280;39844;52.496;13.482;2023-07-13T03:48:53;101057.53;;;18.48;69.96
53932;BME280;39844;52.496;13.482;2023-07-13T03:51:18;101060.75;;;18.58;69.32
53932;BME280;39844;52.496;13.482;2023-07-13T03:53:45;101054.31;;;18.65;69.32
53932;BME280;39844;52.496;13.482;2023-07-13T03:56:12;101054.97;;;18.71;68.78
53932;BME280;39844;52.496;13.482;2023-07-13T03:58:39;101059.19;;;18.78;69.15
53932;BME280;39844;52.496;13.482;2023-07-13T04:01:06;101058.06;;;18.85;68.75
53932;BME280;39844;52.496;13.482;2023-07-13T04:03:33;101062.34;;;18.91;68.40
53932;BME280;39844;52.496;13.482;2023-07-13T04:06:02;101063.09;;;18.94;68.20
53932;BME280;39844;52.496;13.482;2023-07-13T04:08:30;101061.16;;;19.00;67.71
53932;BME280;39844;52.496;13.482;2023-07-13T04:10:59;101066.34;;;19.04;67.46
53932;BME280;39844;52.496;13.482;2023-07-13T04:13:25;101066.19;;;19.09;67.72
53932;BME280;39844;52.496;13.482;2023-07-13T04:15:51;101066.19;;;19.09;65.08
53932;BME280;39844;52.496;13.482;2023-07-13T04:18:16;101064.22;;;19.14;65.14
53932;BME280;39844;52.496;13.482;2023-07-13T04:20:42;101068.47;;;19.19;65.47
53932;BME280;39844;52.496;13.482;2023-07-13T04:23:07;101069.31;;;19.20;64.59
53932;BME280;39844;52.496;13.482;2023-07-13T04:25:32;101068.25;;;19.25;64.69
53932;BME280;39844;52.496;13.482;2023-07-13T04:27:58;101067.19;;;19.31;66.33
53932;BME280;39844;52.496;13.482;2023-07-13T04:30:23;101074.13;;;19.35;65.77
53932;BME280;39844;52.496;13.482;2023-07-13T04:32:51;101065.22;;;19.36;65.22
53932;BME280;39844;52.496;13.482;2023-07-13T04:35:16;101071.44;;;19.36;65.30
53932;BME280;39844;52.496;13.482;2023-07-13T04:37:42;101077.66;;;19.35;65.05
53932;BME280;39844;52.496;13.482;2023-07-13T04:40:07;101075.81;;;19.39;65.48
53932;BME280;39844;52.496;13.482;2023-07-13T04:42:33;101079.28;;;19.41;65.86
53932;BME280;39844;52.496;13.482;2023-07-13T04:44:58;101086.00;;;19.52;65.49
53932;BME280;39844;52.496;13.482;2023-07-13T04:47:23;101089.22;;;19.62;64.90
53932;BME280;39844;52.496;13.482;2023-07-13T04:49:48;101087.25;;;19.67;64.65
53932;BME280;39844;52.496;13.482;2023-07-13T04:52:14;101101.38;;;19.69;63.86
53932;BME280;39844;52.496;13.482;2023-07-13T04:54:39;101099.53;;;19.71;64.11
53932;BME280;39844;52.496;13.482;2023-07-13T04:57:05;101096.03;;;19.69;63.50
53932;BME280;39844;52.496;13.482;2023-07-13T04:59:30;101095.16;;;19.69;63.83
53932;BME280;39844;52.496;13.482;2023-07-13T05:01:56;101103.13;;;19.70;64.06
53932;BME280;39844;52.496;13.482;2023-07-13T05:04:23;101102.34;;;19.67;63.70
53932;BME280;39844;52.496;13.482;2023-07-13T05:06:49;101101.38;;;19.69;63.99
53932;BME280;39844;52.496;13.482;2023-07-13T05:09:14;101112.84;;;19.71;63.94
53932;BME280;39844;52.496;13.482;2023-07-13T05:11:39;101116.31;;;19.73;64.19
53932;BME280;39844;52.496;13.482;2023-07-13T05:14:04;101112.66;;;19.76;64.47
53932;BME280;39844;52.496;13.482;2023-07-13T05:16:30;101117.03;;;19.78;63.85
53932;BME280;39844;52.496;13.482;2023-07-13T05:18:55;101112.41;;;19.83;63.45
53932;BME280;39844;52.496;13.482;2023-07-13T05:21:20;101112.53;;;19.80;62.63
53932;BME280;39844;52.496;13.482;2023-07-13T05:23:46;101109.00;;;19.80;61.82
53932;BME280;39844;52.496;13.482;2023-07-13T05:26:12;101118.66;;;19.82;62.07
53932;BME280;39844;52.496;13.482;2023-07-13T05:28:38;101117.69;;;19.85;61.66
53932;BME280;39844;52.496;13.482;2023-07-13T05:31:04;101114.03;;;19.87;61.66
53932;BME280;39844;52.496;13.482;2023-07-13T05:33:29;101115.72;;;19.90;61.64
53932;BME280;39844;52.496;13.482;2023-07-13T05:35:55;101112.00;;;19.94;62.05
53932;BME280;39844;52.496;13.482;2023-07-13T05:38:20;101118.22;;;19.94;61.31
53932;BME280;39844;52.496;13.482;2023-07-13T05:40:46;101128.78;;;19.97;61.67
53932;BME280;39844;52.496;13.482;2023-07-13T05:43:12;101122.56;;;19.97;60.59
53932;BME280;39844;52.496;13.482;2023-07-13T05:45:37;101120.72;;;19.99;60.76
53932;BME280;39844;52.496;13.482;2023-07-13T05:48:03;101124.19;;;20.01;60.52
53932;BME280;39844;52.496;13.482;2023-07-13T05:50:28;101125.88;;;20.03;60.66
53932;BME280;39844;52.496;13.482;2023-07-13T05:52:54;101133.75;;;20.06;59.82
53932;BME280;39844;52.496;13.482;2023-07-13T05:55:19;101124.78;;;20.09;60.26
53932;BME280;39844;52.496;13.482;2023-07-13T05:57:45;101131.78;;;20.11;60.33
53932;BME280;39844;52.496;13.482;2023-07-13T06:00:10;101126.44;;;20.13;59.37
53932;BME280;39844;52.496;13.482;2023-07-13T06:02:36;101133.56;;;20.12;60.35
53932;BME280;39844;52.496;13.482;2023-07-13T06:05:01;101135.16;;;20.16;60.17
53932;BME280;39844;52.496;13.482;2023-07-13T06:07:27;101127.16;;;20.16;59.99
53932;BME280;39844;52.496;13.482;2023-07-13T06:09:52;101128.13;;;20.15;60.26
53932;BME280;39844;52.496;13.482;2023-07-13T06:12:17;101126.34;;;20.14;60.09
53932;BME280;39844;52.496;13.482;2023-07-13T06:14:43;101136.81;;;20.21;60.63
53932;BME280;39844;52.496;13.482;2023-07-13T06:17:08;101131.41;;;20.22;60.21
53932;BME280;39844;52.496;13.482;2023-07-13T06:19:34;101135.78;;;20.25;60.69
53932;BME280;39844;52.496;13.482;2023-07-13T06:21:59;101123.41;;;20.24;59.57
53932;BME280;39844;52.496;13.482;2023-07-13T06:24:25;101122.47;;;20.25;60.17
53932;BME280;39844;52.496;13.482;2023-07-13T06:26:50;101129.28;;;20.32;60.21
53932;BME280;39844;52.496;13.482;2023-07-13T06:29:16;101131.97;;;20.32;59.82
53932;BME280;39844;52.496;13.482;2023-07-13T06:31:41;101128.38;;;20.33;60.03
53932;BME280;39844;52.496;13.482;2023-07-13T06:34:06;101116.66;;;20.37;60.20
53932;BME280;39844;52.496;13.482;2023-07-13T06:36:32;101121.94;;;20.38;59.23
53932;BME280;39844;52.496;13.482;2023-07-13T06:38:57;101125.34;;;20.42;59.55
53932;BME280;39844;52.496;13.482;2023-07-13T06:41:22;101114.69;;;20.42;59.07
53932;BME280;39844;52.496;13.482;2023-07-13T06:43:48;101126.00;;;20.48;60.16
53932;BME280;39844;52.496;13.482;2023-07-13T06:46:13;101124.16;;;20.50;59.50
53932;BME280;39844;52.496;13.482;2023-07-13T06:48:38;101121.41;;;20.52;59.30
53932;BME280;39844;52.496;13.482;2023-07-13T06:51:04;101130.97;;;20.57;58.87
53932;BME280;39844;52.496;13.482;2023-07-13T06:53:29;101135.09;;;20.66;58.61
53932;BME280;39844;52.496;13.482;2023-07-13T06:55:55;101132.31;;;20.69;58.18
53932;BME280;39844;52.496;13.482;2023-07-13T06:58:21;101119.66;;;20.74;58.53
53932;BME280;39844;52.496;13.482;2023-07-13T07:00:50;101123.94;;;20.78;58.33
53932;BME280;39844;52.496;13.482;2023-07-13T07:03:16;101126.50;;;20.81;57.43
53932;BME280;39844;52.496;13.482;2023-07-13T07:05:41;101122.75;;;20.85;57.22
53932;BME280;39844;52.496;13.482;2023-07-13T07:08:07;101120.72;;;20.92;56.71
53932;BME280;39844;52.496;13.482;2023-07-13T07:10:33;101121.41;;;20.97;56.56
53932;BME280;39844;52.496;13.482;2023-07-13T07:12:59;101121.22;;;21.01;56.56
53932;BME280;39844;52.496;13.482;2023-07-13T07:15:25;101114.81;;;21.05;55.42
53932;BME280;39844;52.496;13.482;2023-07-13T07:17:50;101112.00;;;21.10;55.81
53932;BME280;39844;52.496;13.482;2023-07-13T07:20:16;101118.94;;;21.14;55.72
53932;BME280;39844;52.496;13.482;2023-07-13T07:22:41;101120.56;;;21.18;55.86
53932;BME280;39844;52.496;13.482;2023-07-13T07:25:07;101120.50;;;21.19;54.43
53932;BME280;39844;52.496;13.482;2023-07-13T07:27:32;101115.97;;;21.21;54.55
53932;BME280;39844;52.496;13.482;2023-07-13T07:29:57;101124.78;;;21.23;53.35
53932;BME280;39844;52.496;13.482;2023-07-13T07:32:23;101135.22;;;21.29;53.23
53932;BME280;39844;52.496;13.482;2023-07-13T07:34:48;101128.69;;;21.36;53.10
53932;BME280;39844;52.496;13.482;2023-07-13T07:37:14;101130.81;;;21.49;52.75
53932;BME280;39844;52.496;13.482;2023-07-13T07:39:40;101131.16;;;21.61;52.13
53932;BME280;39844;52.496;13.482;2023-07-13T07:42:06;101130.47;;;21.78;53.13
53932;BME280;39844;52.496;13.482;2023-07-13T07:44:32;101135.44;;;21.87;53.00
53932;BME280;39844;52.496;13.482;2023-07-13T07:46:58;101132.50;;;21.93;52.97
53932;BME280;39844;52.496;13.482;2023-07-13T07:49:24;101129.56;;;21.99;52.88
53932;BME280;39844;52.496;13.482;2023-07-13T07:51:49;101125.94;;;22.00;52.37
53932;BME280;39844;52.496;13.482;2023-07-13T07:54:15;101126.53;;;22.07;53.42
53932;BME280;39844;52.496;13.482;2023-07-13T07:56:40;101123.91;;;22.05;53.33
53932;BME280;39844;52.496;13.482;2023-07-13T07:59:05;101139.75;;;22.10;53.57
53932;BME280;39844;52.496;13.482;2023-07-13T08:01:31;101130.06;;;22.07;53.01
53932;BME280;39844;52.496;13.482;2023-07-13T08:03:56;101125.66;;;22.06;52.76
53932;BME280;39844;52.496;13.482;2023-07-13T08:06:21;101136.94;;;22.13;53.42
53932;BME280;39844;52.496;13.482;2023-07-13T08:08:47;101142.75;;;22.22;53.26
53932;BME280;39844;52.496;13.482;2023-07-13T08:11:12;101138.06;;;22.27;52.85
53932;BME280;39844;52.496;13.482;2023-07-13T08:13:37;101145.00;;;22.31;52.58
53932;BME280;39844;52.496;13.482;2023-07-13T08:16:06;101151.59;;;22.43;52.26
53932;BME280;39844;52.496;13.482;2023-07-13T08:18:32;101141.19;;;22.55;52.22
53932;BME280;39844;52.496;13.482;2023-07-13T08:20:58;101141.75;;;22.63;51.85
53932;BME280;39844;52.496;13.482;2023-07-13T08:23:23;101144.00;;;22.73;52.16
53932;BME280;39844;52.496;13.482;2023-07-13T08:25:52;101147.09;;;22.82;52.54
53932;BME280;39844;52.496;13.482;2023-07-13T08:28:19;101137.63;;;22.75;50.30
53932;BME280;39844;52.496;13.482;2023-07-13T08:30:45;101148.50;;;22.72;49.87
53932;BME280;39844;52.496;13.482;2023-07-13T08:33:10;101145.81;;;22.72;50.08
53932;BME280;39844;52.496;13.482;2023-07-13T08:35:35;101152.50;;;22.81;49.31
53932;BME280;39844;52.496;13.482;2023-07-13T08:38:00;101155.56;;;22.92;49.40
53932;BME280;39844;52.496;13.482;2023-07-13T08:40:27;101157.00;;;22.99;48.86
53932;BME280;39844;52.496;13.482;2023-07-13T08:42:54;101147.00;;;23.02;48.01
53932;BME280;39844;52.496;13.482;2023-07-13T08:45:44;101163.09;;;23.02;48.44
53932;BME280;39844;52.496;13.482;2023-07-13T08:50:50;101162.34;;;22.99;47.78
53932;BME280;39844;52.496;13.482;2023-07-13T08:53:16;101161.34;;;23.01;48.51
53932;BME280;39844;52.496;13.482;2023-07-13T08:55:43;101159.63;;;23.00;48.46
53932;BME280;39844;52.496;13.482;2023-07-13T08:58:14;101162.22;;;23.02;49.42
53932;BME280;39844;52.496;13.482;2023-07-13T09:00:55;101154.25;;;23.00;49.27
53932;BME280;39844;52.496;13.482;2023-07-13T09:03:24;101161.13;;;23.06;49.24
53932;BME280;39844;52.496;13.482;2023-07-13T09:05:54;101160.50;;;23.01;49.36
53932;BME280;39844;52.496;13.482;2023-07-13T09:11:01;101159.16;;;22.91;49.42
53932;BME280;39844;52.496;13.482;2023-07-13T09:16:10;101162.00;;;22.88;49.24
53932;BME280;39844;52.496;13.482;2023-07-13T09:18:40;101166.50;;;22.87;48.63
53932;BME280;39844;52.496;13.482;2023-07-13T09:21:16;101166.13;;;22.95;49.15
53932;BME280;39844;52.496;13.482;2023-07-13T09:23:43;101168.66;;;22.98;49.17
53932;BME280;39844;52.496;13.482;2023-07-13T09:26:18;101164.38;;;22.94;47.00
53932;BME280;39844;52.496;13.482;2023-07-13T09:28:47;101161.19;;;22.86;45.08
53932;BME280;39844;52.496;13.482;2023-07-13T09:31:16;101160.41;;;22.84;43.51
53932;BME280;39844;52.496;13.482;2023-07-13T09:33:44;101157.16;;;22.96;44.62
53932;BME280;39844;52.496;13.482;2023-07-13T09:36:25;101157.81;;;23.01;43.20
53932;BME280;39844;52.496;13.482;2023-07-13T09:41:47;101154.13;;;23.39;43.72
53932;BME280;39844;52.496;13.482;2023-07-13T09:44:17;101154.03;;;23.59;44.02
53932;BME280;39844;52.496;13.482;2023-07-13T09:46:52;101157.88;;;23.71;43.46
53932;BME280;39844;52.496;13.482;2023-07-13T09:49:17;101166.84;;;23.70;44.13
53932;BME280;39844;52.496;13.482;2023-07-13T09:51:42;101157.53;;;23.60;43.54
53932;BME280;39844;52.496;13.482;2023-07-13T09:54:19;101157.16;;;23.67;44.28
53932;BME280;39844;52.496;13.482;2023-07-13T09:56:44;101161.75;;;24.00;43.31
53932;BME280;39844;52.496;13.482;2023-07-13T09:59:21;101158.53;;;24.43;42.03
53932;BME280;39844;52.496;13.482;2023-07-13T10:01:47;101161.06;;;24.79;40.01
53932;BME280;39844;52.496;13.482;2023-07-13T10:04:13;101156.78;;;25.22;39.71
53932;BME280;39844;52.496;13.482;2023-07-13T10:06:39;101158.19;;;25.74;38.55
53932;BME280;39844;52.496;13.482;2023-07-13T10:09:07;101148.16;;;25.62;38.57
53932;BME280;39844;52.496;13.482;2023-07-13T10:11:34;101145.16;;;25.52;38.96
53932;BME280;39844;52.496;13.482;2023-07-13T10:14:21;101159.81;;;25.16;38.29
53932;BME280;39844;52.496;13.482;2023-07-13T10:16:49;101166.47;;;24.77;39.05
53932;BME280;39844;52.496;13.482;2023-07-13T10:19:26;101158.09;;;24.99;40.35
53932;BME280;39844;52.496;13.482;2023-07-13T10:21:55;101144.81;;;25.27;39.93
53932;BME280;39844;52.496;13.482;2023-07-13T10:24:23;101149.97;;;25.61;38.91
53932;BME280;39844;52.496;13.482;2023-07-13T10:26:56;101141.69;;;25.94;38.45
53932;BME280;39844;52.496;13.482;2023-07-13T10:29:25;101157.25;;;26.33;38.15
53932;BME280;39844;52.496;13.482;2023-07-13T10:31:52;101148.69;;;26.55;36.99
53932;BME280;39844;52.496;13.482;2023-07-13T10:34:18;101139.75;;;26.54;35.97
53932;BME280;39844;52.496;13.482;2023-07-13T10:36:45;101156.44;;;26.03;37.20
53932;BME280;39844;52.496;13.482;2023-07-13T10:39:27;101159.19;;;25.87;36.83
53932;BME280;39844;52.496;13.482;2023-07-13T10:41:57;101154.16;;;25.81;38.44
53932;BME280;39844;52.496;13.482;2023-07-13T10:44:28;101158.91;;;25.62;38.39
53932;BME280;39844;52.496;13.482;2023-07-13T10:47:20;101156.56;;;25.40;39.44
53932;BME280;39844;52.496;13.482;2023-07-13T10:49:46;101157.28;;;25.28;37.87
53932;BME280;39844;52.496;13.482;2023-07-13T10:52:50;101155.50;;;24.97;39.00
53932;BME280;39844;52.496;13.482;2023-07-13T10:58:13;101159.56;;;25.04;37.44
53932;BME280;39844;52.496;13.482;2023-07-13T11:01:15;101155.75;;;25.08;37.26
53932;BME280;39844;52.496;13.482;2023-07-13T11:06:12;101144.31;;;25.96;36.48
53932;BME280;39844;52.496;13.482;2023-07-13T11:11:40;101139.66;;;26.84;34.94
53932;BME280;39844;52.496;13.482;2023-07-13T11:14:38;101143.19;;;27.25;34.22
53932;BME280;39844;52.496;13.482;2023-07-13T11:22:48;101143.81;;;27.95;33.08
53932;BME280;39844;52.496;13.482;2023-07-13T11:27:49;101129.03;;;28.38;32.91
53932;BME280;39844;52.496;13.482;2023-07-13T11:30:23;101139.28;;;28.58;30.07
53932;BME280;39844;52.496;13.482;2023-07-13T11:33:27;101125.91;;;28.44;29.60
53932;BME280;39844;52.496;13.482;2023-07-13T11:36:00;101128.25;;;28.74;30.74
53932;BME280;39844;52.496;13.482;2023-07-13T11:38:28;101127.44;;;28.97;30.66
53932;BME280;39844;52.496;13.482;2023-07-13T11:40:55;101125.13;;;29.04;30.33
53932;BME280;39844;52.496;13.482;2023-07-13T11:43:22;101133.75;;;28.85;30.08
53932;BME280;39844;52.496;13.482;2023-07-13T11:45:47;101135.75;;;28.70;30.48
53932;BME280;39844;52.496;13.482;2023-07-13T11:48:25;101124.50;;;28.51;29.97
53932;BME280;39844;52.496;13.482;2023-07-13T11:50:58;101122.47;;;28.67;29.94
53932;BME280;39844;52.496;13.482;2023-07-13T11:53:27;101124.72;;;28.97;30.92
53932;BME280;39844;52.496;13.482;2023-07-13T11:55:53;101121.84;;;29.11;31.91
53932;BME280;39844;52.496;13.482;2023-07-13T11:58:23;101128.84;;;29.03;30.76
53932;BME280;39844;52.496;13.482;2023-07-13T12:00:49;101118.31;;;29.11;30.89
53932;BME280;39844;52.496;13.482;2023-07-13T12:03:18;101122.38;;;29.29;31.92
53932;BME280;39844;52.496;13.482;2023-07-13T12:06:04;101125.59;;;29.34;30.99
53932;BME280;39844;52.496;13.482;2023-07-13T12:08:29;101113.63;;;29.25;29.98
53932;BME280;39844;52.496;13.482;2023-07-13T12:11:16;101113.28;;;29.17;30.40
53932;BME280;39844;52.496;13.482;2023-07-13T12:13:43;101106.06;;;29.18;30.46
53932;BME280;39844;52.496;13.482;2023-07-13T12:16:32;101118.47;;;28.97;29.55
53932;BME280;39844;52.496;13.482;2023-07-13T12:18:59;101111.38;;;29.07;30.49
53932;BME280;39844;52.496;13.482;2023-07-13T12:21:31;101103.44;;;29.16;29.78
53932;BME280;39844;52.496;13.482;2023-07-13T12:23:58;101109.88;;;29.39;30.68
53932;BME280;39844;52.496;13.482;2023-07-13T12:26:23;101101.34;;;29.32;30.28
53932;BME280;39844;52.496;13.482;2023-07-13T12:28:52;101114.56;;;29.48;30.35
53932;BME280;39844;52.496;13.482;2023-07-13T12:31:41;101110.19;;;29.34;30.00
53932;BME280;39844;52.496;13.482;2023-07-13T12:34:10;101106.97;;;29.29;31.06
53932;BME280;39844;52.496;13.482;2023-07-13T12:36:37;101114.38;;;29.15;30.49
53932;BME280;39844;52.496;13.482;2023-07-13T12:39:13;101105.63;;;29.11;31.20
53932;BME280;39844;52.496;13.482;2023-07-13T12:41:39;101115.88;;;29.19;30.86
53932;BME280;39844;52.496;13.482;2023-07-13T12:44:10;101111.19;;;29.33;31.33
53932;BME280;39844;52.496;13.482;2023-07-13T12:46:36;101125.47;;;28.75;30.20
53932;BME280;39844;52.496;13.482;2023-07-13T12:49:05;101113.59;;;28.28;30.65
53932;BME280;39844;52.496;13.482;2023-07-13T12:51:31;101113.31;;;28.32;31.28
53932;BME280;39844;52.496;13.482;2023-07-13T12:54:16;101104.31;;;28.44;32.19
53932;BME280;39844;52.496;13.482;2023-07-13T12:56:42;101112.81;;;28.51;32.17
53932;BME280;39844;52.496;13.482;2023-07-13T12:59:16;101113.13;;;28.71;31.05
53932;BME280;39844;52.496;13.482;2023-07-13T13:01:42;101118.41;;;29.09;32.24
53932;BME280;39844;52.496;13.482;2023-07-13T13:04:11;101125.38;;;28.64;30.21
53932;BME280;39844;52.496;13.482;2023-07-13T13:06:37;101119.66;;;28.44;30.46
53932;BME280;39844;52.496;13.482;2023-07-13T13:09:03;101120.72;;;28.41;31.89
53932;BME280;39844;52.496;13.482;2023-07-13T13:11:30;101124.53;;;28.26;31.67
53932;BME280;39844;52.496;13.482;2023-07-13T13:13:56;101124.31;;;28.04;32.03